Samaria, Michigan
Current Conditions -  °F | °C
As of 10:54 AM on Friday 28 Nov 2014 (Local Time) from KDUH Reporting Station
Scattered Clouds Scattered Clouds  
Wind Chill: 22°   Ceiling: Unl
Heat Index: 28°   Visibility: 10mi
Dew Point: 14°   Wind: 6mph
Humidity: 55%   Direction: 160°SSE
Pressure: 30.33"   Gusts: NA
Location:  41.81°N, 83.58°W
Report Text: KDUH 281554Z AUTO 16005KT 10SM SCT100 M02/M10 A3033 RMK AO2
Loading
Personal Weather Stations






























Interactive Weather Map New forecast layout! Learn more

10-Day Weather Forecast

Advertisements
Track Severe Weather on mobile